Latest Weather Observations for White Cliffs AWS

IDN60801

Issued at 7:32 pm EDT Wednesday 7 December 2016 (issued every 30 minutes, with the page automatically refreshed every 10 minutes)

About weather observations | Map of weather stations | Latest weather observations for NSW | Other Formats
Station Details ID: 046129 Name: WHITE CLIFFS AWS Lat: -30.85 Lon: 143.07 Height: 158.0 m
Data from the previous 72 hours. | See also: Recent months at White Cliffs AWS
Date/Time
EDT
Temp
°C
App
Temp
°C
Dew
Point
°C
Rel
Hum
%
Delta-T
°C
Wind Press
QNH
hPa
Press
MSL
hPa
Rain since
9am
mm
Dir  Spd
km/h
Gust
km/h
Spd
kts
Gust
kts
07/07:30pm 31.1 28.8 7.5 23 13.0 NNE 9 15 5 8 1010.0 1009.0 0.0
07/07:00pm 31.4 28.9 8.4 24 12.9 ENE 11 19 6 10 1009.9 1008.9 0.0
07/06:30pm 31.5 28.8 9.1 25 12.7 NE 13 20 7 11 1010.0 1009.0 0.0
07/06:00pm 31.8 29.0 8.7 24 13.0 N 13 24 7 13 1010.1 1009.1 0.0
07/05:30pm 31.9 29.7 9.4 25 12.8 NE 11 20 6 11 1010.4 1009.4 0.0
07/05:00pm 31.9 30.6 10.0 26 12.6 NNE 7 15 4 8 1010.7 1009.7 0.0
07/04:30pm 31.5 29.3 10.8 28 12.0 E 13 20 7 11 1011.2 1010.2 0.0
07/04:00pm 31.1 28.7 9.9 27 12.1 NE 13 22 7 12 1011.6 1010.6 0.0
07/03:30pm 31.2 30.1 10.5 28 11.9 N 7 13 4 7 1012.3 1011.3 0.0
07/03:00pm 30.5 29.8 11.9 31 10.9 NNW 7 20 4 11 1012.8 1011.9 0.0
07/02:30pm 30.0 28.1 12.9 35 10.2 NE 15 24 8 13 1013.3 1012.4 0.0
07/02:00pm 29.3 28.2 14.3 40 9.1 NE 13 24 7 13 1013.7 1012.8 0.0
07/01:30pm 28.3 27.6 14.2 42 8.5 NE 11 20 6 11 1014.1 1013.2 0.0
07/01:00pm 27.3 27.0 13.3 42 8.3 N 7 15 4 8 1014.5 1013.6 0.0
07/12:30pm 26.5 26.0 13.9 45 7.5 ENE 9 15 5 8 1014.9 1014.0 0.0
07/12:00pm 26.2 26.2 15.3 51 6.6 ENE 9 15 5 8 1015.5 1014.6 0.0
07/11:30am 24.1 23.2 14.8 56 5.6 ENE 13 20 7 11 1016.0 1015.1 0.0
07/11:00am 23.7 23.2 14.9 57 5.3 E 11 20 6 11 1016.3 1015.4 0.0
07/10:30am 22.4 22.3 16.0 67 3.9 E 11 20 6 11 1016.3 1015.4 0.0
07/10:00am 21.7 21.2 16.0 70 3.4 E 13 17 7 9 1016.9 1015.9 0.0
07/09:30am 21.2 20.8 16.2 73 3.0 ESE 13 17 7 9 1016.8 1015.8 0.0
07/09:00am 20.4 20.5 16.4 78 2.4 E 11 15 6 8 1016.8 1015.8 3.2
07/08:30am 19.5 19.1 16.3 82 1.9 ESE 13 17 7 9 1016.6 1015.6 3.2
07/08:00am 18.5 19.1 16.7 89 1.1 ESE 9 13 5 7 1016.6 1015.6 3.2
07/07:30am 18.0 20.0 17.0 94 0.6 E 2 7 1 4 1016.2 1015.3 3.2
07/07:00am 16.8 17.8 16.3 97 0.3 E 6 6 3 3 1015.6 1014.7 3.2
07/06:30am 16.5 17.2 16.0 97 0.3 E 7 9 4 5 1015.2 1014.3 3.2
07/06:00am 16.8 17.3 16.5 98 0.2 SE 9 9 5 5 1014.6 1013.7 3.2
07/05:30am 16.7 17.0 16.1 96 0.4 ESE 9 11 5 6 1014.2 1013.3 3.2
07/05:00am 17.0 17.7 16.0 94 0.6 E 7 9 4 5 1013.8 1012.9 3.2
07/04:30am 17.2 17.5 16.1 93 0.7 E 9 9 5 5 1013.5 1012.6 3.2
07/04:00am 17.6 18.0 16.3 92 0.8 SSE 9 13 5 7 1013.4 1012.5 3.2
07/03:30am 17.9 17.5 17.1 95 0.5 S 15 19 8 10 1013.3 1012.4 3.2
07/03:00am 18.0 18.1 17.4 96 0.4 S 13 17 7 9 1013.6 1012.7 3.2
07/02:30am 18.0 17.2 17.2 95 0.5 S 17 20 9 11 1014.0 1013.1 3.2
07/02:00am 18.3 18.2 17.0 92 0.8 S 13 15 7 8 1014.5 1013.6 3.2
07/01:30am 18.3 19.0 17.1 93 0.7 SSE 9 13 5 7 1014.5 1013.6 3.2
07/01:00am 18.4 19.1 17.1 92 0.8 SE 9 11 5 6 1014.5 1013.6 3.2
07/12:30am 18.6 19.2 16.9 90 1.0 ESE 9 11 5 6 1015.0 1014.1 3.2
07/12:00am 19.0 19.7 17.0 88 1.2 SSE 9 11 5 6 1015.5 1014.6 3.2
 
Date/Time
EDT
Temp
°C
App
Temp
°C
Dew
Point
°C
Rel
Hum
%
Delta-T
°C
Wind Press
QNH
hPa
Press
MSL
hPa
Rain since
9am
mm
Dir  Spd
km/h
Gust
km/h
Spd
kts
Gust
kts
06/11:30pm 19.3 18.7 17.6 90 1.0 SSE 17 20 9 11 1015.1 1014.2 3.2
06/11:00pm 19.4 20.6 18.2 93 0.7 SSE 9 11 5 6 1015.1 1014.2 3.2
06/10:30pm 19.7 20.6 18.5 93 0.8 SSE 11 13 6 7 1015.1 1014.2 3.2
06/10:00pm 20.1 22.9 18.9 93 0.8 SSW 2 7 1 4 1015.7 1014.8 3.2
06/09:30pm 20.1 21.6 18.8 92 0.8 S 9 11 5 6 1015.5 1014.6 3.2
06/09:00pm 20.2 21.2 18.7 91 0.9 SSW 11 13 6 7 1015.2 1014.3 3.2
06/08:30pm 20.4 21.3 18.5 89 1.2 S 11 13 6 7 1015.6 1014.7 3.2
06/08:00pm 20.5 22.0 18.8 90 1.1 S 9 11 5 6 1015.5 1014.6 3.2
06/07:30pm 20.7 22.7 19.2 91 1.0 SE 7 11 4 6 1014.8 1013.9 3.0
06/07:00pm 20.6 22.4 18.7 89 1.2 SE 7 11 4 6 1014.9 1014.0 3.0
06/06:30pm 20.6 21.9 19.3 92 0.8 SSE 11 17 6 9 1014.5 1013.6 3.0
06/06:00pm 21.0 22.0 19.5 91 1.0 SSE 13 15 7 8 1014.4 1013.5 2.8
06/05:30pm 21.1 22.1 19.4 90 1.1 SE 13 15 7 8 1014.4 1013.5 2.4
06/05:00pm 20.9 22.7 19.6 92 0.8 ESE 9 11 5 6 1014.5 1013.6 2.2
06/04:30pm 21.2 22.7 18.9 87 1.5 SE 9 13 5 7 1014.5 1013.6 1.6
06/04:00pm 21.3 22.5 19.0 87 1.5 SSE 11 15 6 8 1014.8 1013.9 1.4
06/03:30pm 21.0 22.3 18.4 85 1.6 SE 9 13 5 7 1014.7 1013.8 1.4
06/03:00pm 21.0 21.5 18.4 85 1.6 SE 13 17 7 9 1014.3 1013.4 1.2
06/02:30pm 21.1 21.4 18.7 86 1.5 S 15 19 8 10 1014.7 1013.8 1.0
06/02:00pm 21.3 21.7 18.1 82 2.0 SE 13 19 7 10 1014.7 1013.8 1.0
06/01:30pm 21.3 20.7 18.5 84 1.8 S 19 24 10 13 1014.6 1013.7 1.0
06/01:00pm 20.9 20.2 18.7 87 1.4 S 20 26 11 14 1014.8 1013.9 0.8
06/12:30pm 21.2 20.8 18.9 87 1.5 S 19 24 10 13 1014.9 1014.0 0.8
06/12:00pm 20.3 19.7 18.8 91 0.9 SSW 20 28 11 15 1015.7 1014.8 0.8
06/11:30am 20.2 18.6 19.2 94 0.6 SSW 26 30 14 16 1015.5 1014.6 0.8
06/11:00am 20.6 19.1 19.4 93 0.8 SSW 26 30 14 16 1015.8 1014.9 0.6
06/10:30am 21.2 22.2 19.5 90 1.1 S 13 17 7 9 1015.4 1014.5 0.2
06/10:00am 21.0 21.7 18.9 88 1.3 S 13 17 7 9 1014.9 1014.0 0.2
06/09:30am 20.8 21.1 17.8 83 1.9 S 13 17 7 9 1015.1 1014.2 0.2
06/09:00am 21.3 21.8 17.5 79 2.4 SSE 11 13 6 7 1014.7 1013.8 1.4
06/08:30am 20.7 21.8 17.1 80 2.2 SE 7 9 4 5 1014.6 1013.7 1.4
06/08:00am 20.4 20.6 16.8 80 2.2 S 11 15 6 8 1014.4 1013.5 1.4
06/07:30am 21.2 21.6 16.2 73 3.0 SSE 9 13 5 7 1013.9 1013.0 1.2
06/07:00am 20.9 19.9 16.5 76 2.7 S 17 20 9 11 1013.3 1012.4 1.2
06/06:30am 20.7 19.3 16.5 77 2.6 SSW 19 24 10 13 1013.2 1012.3 1.2
06/06:00am 21.0 19.4 16.4 75 2.8 SSW 20 24 11 13 1013.3 1012.4 1.2
06/05:30am 21.3 19.8 16.7 75 2.8 SW 20 32 11 17 1013.2 1012.3 1.2
06/05:00am 21.5 22.2 17.1 76 2.7 SW 9 11 5 6 1011.8 1010.8 1.2
06/04:30am 21.6 23.5 16.6 73 3.1 SSW 2 9 1 5 1011.2 1010.2 1.2
06/04:00am 21.6 22.7 15.7 69 3.6 ESE 4 9 2 5 1011.0 1010.0 1.2
06/03:30am 22.0 20.4 14.9 64 4.2 E 17 20 9 11 1010.0 1009.0 1.2
06/03:00am 21.9 20.2 14.8 64 4.2 E 17 20 9 11 1010.7 1009.7 1.2
06/02:30am 21.9 21.4 15.0 65 4.1 E 11 15 6 8 1011.3 1010.3 1.2
06/02:00am 22.3 21.3 14.7 62 4.5 SE 13 17 7 9 1011.7 1010.7 1.2
06/01:30am 22.3 22.3 15.2 64 4.3 E 9 11 5 6 1012.3 1011.3 1.2
06/01:00am 22.6 21.9 14.4 60 4.9 SE 11 15 6 8 1012.4 1011.4 1.2
06/12:30am 22.8 21.8 14.6 60 4.9 SE 13 17 7 9 1012.7 1011.8 1.2
06/12:00am 22.8 21.7 14.4 59 5.0 SE 13 17 7 9 1012.8 1011.9 1.2
 
Date/Time
EDT
Temp
°C
App
Temp
°C
Dew
Point
°C
Rel
Hum
%
Delta-T
°C
Wind Press
QNH
hPa
Press
MSL
hPa
Rain since
9am
mm
Dir  Spd
km/h
Gust
km/h
Spd
kts
Gust
kts
05/11:30pm 23.1 20.6 14.1 57 5.3 SSE 20 28 11 15 1013.2 1012.3 1.2
05/11:00pm 23.4 18.9 13.8 54 5.6 S 30 37 16 20 1012.7 1011.8 1.2
05/10:30pm 23.9 19.1 14.0 54 5.9 S 32 41 17 22 1012.0 1011.0 1.2
05/10:00pm 24.3 19.1 14.4 54 5.9 SSW 35 43 19 23 1011.8 1010.8 1.2
05/09:30pm 26.5 23.8 16.7 55 6.1 SSW 26 32 14 17 1011.6 1010.6 1.2
05/09:00pm 26.8 25.5 18.1 59 5.6 S 22 30 12 16 1011.1 1010.1 1.2
05/08:30pm 27.6 30.0 20.9 67 4.5 SW 9 22 5 12 1010.8 1009.8 1.2
05/08:00pm 27.3 31.7 21.3 69 4.0 CALM 0 4 0 2 1010.1 1009.1 1.2
05/07:30pm 27.0 27.3 20.3 66 4.4 SW 19 24 10 13 1009.7 1008.8 1.0
05/07:00pm 28.3 27.8 19.2 57 5.9 SW 20 24 11 13 1009.5 1008.6 1.0
05/06:30pm 28.8 28.1 18.6 54 6.6 SW 20 24 11 13 1009.2 1008.3 1.0
05/06:00pm 28.7 29.0 18.8 55 6.4 WSW 15 19 8 10 1009.4 1008.5 1.0
05/05:30pm 28.0 28.8 19.8 61 5.4 W 15 19 8 10 1009.5 1008.6 1.0
05/05:00pm 29.5 25.7 17.3 47 7.8 WSW 33 43 18 23 1009.3 1008.4 0.8
05/04:30pm 31.5 27.8 15.9 39 9.8 W 30 39 16 21 1009.1 1008.2 0.8
05/04:00pm 30.9 31.4 20.8 55 6.8 WSW 19 26 10 14 1009.0 1008.1 0.8
05/03:39pm 28.1 22.3 16.1 48 7.5 W 41 74 22 40 1009.4 1008.5 0.8
05/03:38pm 27.6 22.9 17.7 54 6.3 WNW 39 74 21 40 1009.4 1008.5 0.8
05/03:36pm 29.1 25.5 18.5 52 6.8 WNW 35 74 19 40 1008.9 1008.0 0.4
05/03:30pm 35.6 31.6 13.1 25 13.7 WNW 26 41 14 22 1008.4 1007.5 0.0
05/03:00pm 36.3 33.5 12.5 24 14.5 NW 19 28 10 15 1008.0 1007.1 0.0
05/02:31pm 35.9 31.1 12.8 25 14.1 NW 30 48 16 26 1008.1 1007.2 0.0
05/02:30pm 36.3 31.2 13.1 25 14.2 NW 32 48 17 26 1008.1 1007.2 0.0
05/02:16pm 35.8 31.5 13.3 26 13.8 WNW 28 50 15 27 1008.1 1007.2 0.0
05/02:00pm 37.1 33.3 12.5 23 15.0 NW 24 37 13 20 1008.4 1007.5 0.0
05/01:30pm 36.2 33.0 13.0 24 14.2 NNW 22 35 12 19 1008.4 1007.5 0.0
05/01:00pm 37.8 34.0 12.4 22 15.5 NW 24 32 13 17 1008.5 1007.6 0.0
05/12:30pm 38.3 34.0 12.1 21 15.9 WNW 26 37 14 20 1008.8 1007.9 0.0
05/12:00pm 37.9 33.4 12.5 22 15.5 WNW 28 39 15 21 1009.2 1008.3 0.0
05/11:30am 36.8 32.4 12.9 24 14.6 WNW 28 39 15 21 1009.4 1008.5 0.0
05/11:00am 36.5 31.3 13.3 25 14.3 WNW 33 41 18 22 1009.5 1008.6 0.0
05/10:30am 34.5 30.4 12.8 27 13.1 WNW 26 35 14 19 1009.7 1008.8 0.0
05/10:00am 34.0 31.7 12.9 28 12.8 NW 17 24 9 13 1009.9 1008.9 0.0
05/09:30am 31.2 30.8 13.0 33 10.9 NNE 7 9 4 5 1009.9 1008.9 0.0
05/09:00am 30.0 29.7 13.3 36 10.0 ENE 7 9 4 5 1009.3 1008.4 0.0
05/08:30am 29.4 28.7 13.2 37 9.7 ENE 9 11 5 6 1009.4 1008.5 0.0
05/08:00am 28.1 28.0 13.2 39 8.9 SSE 6 9 3 5 1009.7 1008.8 0.0
05/07:30am 27.5 26.4 13.1 41 8.5 WNW 11 13 6 7 1010.3 1009.3 0.0
05/07:00am 27.5 26.3 12.7 40 8.7 WSW 11 20 6 11 1009.4 1008.5 0.0
05/06:30am 27.3 26.4 12.5 40 8.7 SSW 9 13 5 7 1008.7 1007.8 0.0
05/06:00am 27.6 25.9 12.4 39 8.9 SSW 13 17 7 9 1008.3 1007.4 0.0
05/05:30am 27.9 25.0 12.3 38 9.1 S 19 24 10 13 1007.7 1006.8 0.0
05/05:00am 28.3 25.2 12.2 37 9.4 S 20 24 11 13 1007.6 1006.7 0.0
05/04:30am 28.8 26.9 11.8 35 9.9 SSW 13 19 7 10 1007.9 1007.0 0.0
05/04:00am 29.2 28.4 11.7 34 10.2 SE 7 9 4 5 1007.8 1006.9 0.0
05/03:30am 29.4 26.8 11.9 34 10.2 S 17 20 9 11 1007.5 1006.6 0.0
05/03:00am 30.1 27.9 13.4 36 10.1 SSW 17 20 9 11 1007.3 1006.4 0.0
05/02:30am 30.6 30.5 13.8 35 10.2 ENE 7 15 4 8 1007.2 1006.3 0.0
05/02:00am 31.4 29.0 14.5 35 10.4 NNE 20 28 11 15 1007.9 1007.0 0.0
05/01:30am 32.5 29.5 12.7 30 11.9 NNE 20 30 11 16 1008.0 1007.1 0.0
05/01:00am 31.0 29.7 11.4 30 11.5 E 9 11 5 6 1008.2 1007.3 0.0
05/12:30am 31.5 30.9 11.8 30 11.6 S 6 9 3 5 1008.0 1007.1 0.0
05/12:00am 32.1 30.2 11.8 29 12.0 WSW 13 30 7 16 1007.6 1006.7 0.0
 
Date/Time
EDT
Temp
°C
App
Temp
°C
Dew
Point
°C
Rel
Hum
%
Delta-T
°C
Wind Press
QNH
hPa
Press
MSL
hPa
Rain since
9am
mm
Dir  Spd
km/h
Gust
km/h
Spd
kts
Gust
kts
04/11:30pm 32.1 30.8 11.3 28 12.2 NW 9 11 5 6 1006.8 1005.8 0.0
04/11:00pm 32.8 33.4 11.9 28 12.4 CALM 0 0 0 0 1006.5 1005.5 0.0
04/10:30pm 33.5 32.4 11.9 27 12.9 N 9 13 5 7 1006.4 1005.4 0.0
04/10:00pm 33.3 32.5 11.8 27 12.8 NW 7 11 4 6 1006.4 1005.4 0.0
04/09:30pm 34.2 32.4 12.0 26 13.3 WSW 13 15 7 8 1006.4 1005.4 0.0
04/09:00pm 34.8 31.4 12.5 26 13.5 SW 22 30 12 16 1005.6 1004.6 0.0
04/08:30pm 35.3 30.3 12.3 25 13.9 WSW 30 37 16 20 1006.0 1005.0 0.0
04/08:00pm 35.8 28.1 12.1 24 14.3 W 44 59 24 32 1005.8 1004.8 0.0
04/07:35pm 37.8 30.7 9.4 18 16.6 WNW 37 56 20 30 1004.9 1003.9 0.0

Other Formats:

Comma delimited format used in spreadsheet applications
http://www.bom.gov.au/fwo/IDN60801/IDN60801.95699.axf

JavaScript Object Notation format (JSON) in row-major order
http://www.bom.gov.au/fwo/IDN60801/IDN60801.95699.json